Time;durP1;ratioP1;P1;durP2;ratioP2;P2;SDS_P1;SDS_P2;PMS_P1;PMS_P2;Temp;Humidity;BMP_temperature;BMP_pressure;BME280_temperature;BME280_humidity;BME280_pressure;Samples;Min_cycle;Max_cycle;Signal;HPM_P1;HPM_P2
2021/05/30 00:00:16;;;;;;;5.18;2.72;;;10.80;64.30;;;;;;5041366;28;20389;-68
2021/05/30 00:02:41;;;;;;;3.67;2.63;;;10.70;64.30;;;;;;5041081;28;20044;-68
2021/05/30 00:05:09;;;;;;;4.18;2.47;;;10.70;64.40;;;;;;5039939;28;20029;-68
2021/05/30 00:07:35;;;;;;;6.28;2.78;;;10.70;64.80;;;;;;5040144;28;20028;-68
2021/05/30 00:10:01;;;;;;;2.83;2.63;;;10.70;64.80;;;;;;5041863;28;20029;-68
2021/05/30 00:12:26;;;;;;;3.05;2.70;;;10.70;64.70;;;;;;5039816;28;20040;-68
2021/05/30 00:14:52;;;;;;;4.03;3.00;;;10.70;64.80;;;;;;5021530;28;20351;-68
2021/05/30 00:17:17;;;;;;;2.95;2.63;;;10.60;64.70;;;;;;5039723;28;20029;-67
2021/05/30 00:19:44;;;;;;;6.82;2.78;;;10.60;64.90;;;;;;5023388;28;20107;-67
2021/05/30 00:22:10;;;;;;;4.03;2.92;;;10.50;65.10;;;;;;5040813;28;20033;-68
2021/05/30 00:24:36;;;;;;;3.22;2.92;;;10.50;65.30;;;;;;5039423;28;20029;-68
2021/05/30 00:27:03;;;;;;;4.78;3.17;;;10.50;65.30;;;;;;5040459;28;20184;-68
2021/05/30 00:29:29;;;;;;;4.13;2.75;;;10.40;65.40;;;;;;5039755;28;20041;-67
2021/05/30 00:31:54;;;;;;;4.93;3.10;;;10.40;65.50;;;;;;5039302;28;20025;-68
2021/05/30 00:34:20;;;;;;;4.45;3.08;;;10.40;65.60;;;;;;5038099;28;20072;-68
2021/05/30 00:36:46;;;;;;;3.47;2.60;;;10.30;65.60;;;;;;5039234;28;20033;-68
2021/05/30 00:39:12;;;;;;;5.07;3.15;;;10.30;65.60;;;;;;5040046;28;20034;-67
2021/05/30 00:41:38;;;;;;;3.30;3.00;;;10.30;65.70;;;;;;5040938;28;20039;-67
2021/05/30 00:44:22;;;;;;;3.65;2.97;;;10.30;65.80;;;;;;5038990;28;20111;-67
2021/05/30 00:46:49;;;;;;;3.67;2.60;;;10.20;66.10;;;;;;5022265;28;20120;-67
2021/05/30 00:49:14;;;;;;;4.28;2.92;;;10.20;65.90;;;;;;5040501;28;20032;-68
2021/05/30 00:51:40;;;;;;;3.95;3.35;;;10.10;66.00;;;;;;5040666;28;20021;-68
2021/05/30 00:54:07;;;;;;;2.83;2.63;;;10.10;66.10;;;;;;5037073;28;20476;-68
2021/05/30 00:56:32;;;;;;;4.20;3.30;;;10.00;66.10;;;;;;5039145;28;20031;-67
2021/05/30 00:58:58;;;;;;;4.40;2.83;;;10.00;66.30;;;;;;5035985;28;20033;-68
2021/05/30 01:01:24;;;;;;;4.68;3.20;;;9.90;67.10;;;;;;5039356;28;20013;-69
2021/05/30 01:03:49;;;;;;;4.38;3.15;;;9.90;66.70;;;;;;5039796;28;20025;-67
2021/05/30 01:06:15;;;;;;;4.85;3.30;;;9.90;66.80;;;;;;5038877;28;20017;-67
2021/05/30 01:08:40;;;;;;;4.70;3.03;;;9.90;66.90;;;;;;5039256;28;20029;-68
2021/05/30 01:11:14;;;;;;;3.58;2.95;;;9.90;67.00;;;;;;5039884;28;20572;-67
2021/05/30 01:13:40;;;;;;;3.90;3.08;;;9.90;67.30;;;;;;5040926;28;20013;-67
2021/05/30 01:16:07;;;;;;;3.70;2.95;;;9.90;67.10;;;;;;5039090;28;20029;-68
2021/05/30 01:18:36;;;;;;;3.78;3.40;;;9.90;67.10;;;;;;5021243;28;20063;-67
2021/05/30 01:21:02;;;;;;;3.90;3.22;;;9.90;67.30;;;;;;5039725;28;20053;-67
2021/05/30 01:23:27;;;;;;;5.22;3.30;;;9.90;67.20;;;;;;5024232;28;20057;-67
2021/05/30 01:25:53;;;;;;;4.75;3.05;;;9.80;67.20;;;;;;5038238;28;20040;-67
2021/05/30 01:28:19;;;;;;;9.40;3.30;;;9.80;67.30;;;;;;5039629;28;20435;-67
2021/05/30 01:30:46;;;;;;;4.20;3.50;;;9.70;67.40;;;;;;5038410;28;20427;-67
2021/05/30 01:33:12;;;;;;;5.38;3.42;;;9.70;67.60;;;;;;5039738;28;20025;-67
2021/05/30 01:35:37;;;;;;;5.63;3.25;;;9.70;67.60;;;;;;5037909;28;20386;-67
2021/05/30 01:38:04;;;;;;;3.45;3.15;;;9.60;67.60;;;;;;5039611;28;20025;-67
2021/05/30 01:40:30;;;;;;;3.53;3.22;;;9.60;67.70;;;;;;5040025;28;20072;-68
2021/05/30 01:42:56;;;;;;;4.65;3.28;;;9.60;67.90;;;;;;5040314;28;20056;-68
2021/05/30 01:45:24;;;;;;;4.40;3.33;;;9.60;68.00;;;;;;5040121;28;20025;-68
2021/05/30 01:47:49;;;;;;;4.50;3.58;;;9.60;68.00;;;;;;5023240;28;20489;-68
2021/05/30 01:50:21;;;;;;;5.20;3.78;;;9.50;68.00;;;;;;5043474;28;20039;-68
2021/05/30 01:52:48;;;;;;;4.82;3.40;;;9.50;68.30;;;;;;5044634;28;20025;-67
2021/05/30 01:57:49;;;;;;;4.05;3.28;;;9.50;68.10;;;;;;5042631;28;20072;-68
2021/05/30 02:00:16;;;;;;;4.28;3.47;;;9.50;68.10;;;;;;5042182;28;20037;-69
2021/05/30 02:02:44;;;;;;;4.55;3.33;;;9.40;68.00;;;;;;5042989;28;20025;-67
2021/05/30 02:05:11;;;;;;;4.78;3.10;;;9.40;68.30;;;;;;5042432;28;20022;-67
2021/05/30 02:07:39;;;;;;;6.57;3.22;;;9.30;68.40;;;;;;5042496;28;20121;-67
2021/05/30 02:10:06;;;;;;;6.63;3.60;;;9.30;68.50;;;;;;5043071;28;20379;-67
2021/05/30 02:12:33;;;;;;;4.70;3.55;;;9.30;68.60;;;;;;5042091;28;20017;-68
2021/05/30 02:14:59;;;;;;;5.50;3.42;;;9.20;68.70;;;;;;5040821;28;20029;-68
2021/05/30 02:17:25;;;;;;;3.90;3.13;;;9.20;68.80;;;;;;5042183;28;20067;-67
2021/05/30 02:19:52;;;;;;;5.20;3.72;;;9.20;68.90;;;;;;5043023;28;20026;-67
2021/05/30 02:22:18;;;;;;;5.43;4.05;;;9.20;69.00;;;;;;5042836;28;20048;-68
2021/05/30 02:24:44;;;;;;;4.88;3.25;;;9.20;69.10;;;;;;5043072;28;20026;-67
2021/05/30 02:27:13;;;;;;;5.35;4.03;;;9.10;68.90;;;;;;5041897;28;20027;-67
2021/05/30 02:29:42;;;;;;;5.85;3.65;;;9.10;69.00;;;;;;5023272;28;20025;-67
2021/05/30 02:32:09;;;;;;;4.95;3.80;;;9.10;69.10;;;;;;5041537;28;20420;-67
2021/05/30 02:34:36;;;;;;;7.57;3.63;;;9.10;69.20;;;;;;5040922;28;20071;-67
2021/05/30 02:37:02;;;;;;;5.10;3.72;;;9.10;69.30;;;;;;5040222;28;20139;-67
2021/05/30 02:39:28;;;;;;;4.85;3.90;;;9.00;69.20;;;;;;5042841;28;20060;-67
2021/05/30 02:41:54;;;;;;;6.68;4.15;;;9.00;69.40;;;;;;5026651;28;20491;-67
2021/05/30 02:44:19;;;;;;;5.88;4.10;;;9.00;69.50;;;;;;5040207;28;20025;-67
2021/05/30 02:46:45;;;;;;;5.32;4.00;;;9.00;69.50;;;;;;5041963;28;20025;-68
2021/05/30 02:49:10;;;;;;;4.75;3.97;;;8.90;69.60;;;;;;5023864;28;20037;-67
2021/05/30 02:51:36;;;;;;;5.93;4.15;;;8.90;69.60;;;;;;5041164;28;20108;-68
2021/05/30 02:54:02;;;;;;;5.00;4.10;;;8.90;69.70;;;;;;5041353;28;20070;-67
2021/05/30 02:56:28;;;;;;;5.38;4.13;;;8.90;69.90;;;;;;5041145;28;20023;-67
2021/05/30 02:58:53;;;;;;;5.10;4.32;;;8.90;70.10;;;;;;5041589;28;20045;-67
2021/05/30 03:01:19;;;;;;;5.50;4.32;;;8.80;69.90;;;;;;5041522;28;20072;-67
2021/05/30 03:03:45;;;;;;;7.07;4.38;;;8.80;69.90;;;;;;5042204;28;20029;-67
2021/05/30 03:06:11;;;;;;;4.97;3.67;;;8.80;70.00;;;;;;5040554;28;20377;-68
2021/05/30 03:08:36;;;;;;;4.93;4.00;;;8.80;70.10;;;;;;5041264;28;20561;-67
2021/05/30 03:11:02;;;;;;;5.38;4.10;;;8.70;70.10;;;;;;5024327;28;20033;-67
2021/05/30 03:13:27;;;;;;;6.78;4.68;;;8.70;70.20;;;;;;5042894;28;20116;-68
2021/05/30 03:15:53;;;;;;;5.93;4.57;;;8.60;70.30;;;;;;5040316;28;20017;-68
2021/05/30 03:18:19;;;;;;;5.88;4.00;;;8.60;70.40;;;;;;5040539;28;20013;-68
2021/05/30 03:20:44;;;;;;;6.65;4.65;;;8.60;70.50;;;;;;5024562;28;20036;-67
2021/05/30 03:23:10;;;;;;;5.85;4.25;;;8.50;70.60;;;;;;5041248;28;20032;-69
2021/05/30 03:25:36;;;;;;;9.23;4.60;;;8.50;70.60;;;;;;5023332;28;20460;-67
2021/05/30 03:28:03;;;;;;;5.20;4.03;;;8.50;70.80;;;;;;5040147;28;20021;-67
2021/05/30 03:30:28;;;;;;;5.60;4.22;;;8.50;70.90;;;;;;5041272;28;20087;-67
2021/05/30 03:32:54;;;;;;;8.88;5.30;;;8.50;71.10;;;;;;5040020;28;20497;-67
2021/05/30 03:35:19;;;;;;;7.00;4.35;;;8.50;71.10;;;;;;5040292;28;20025;-67
2021/05/30 03:37:46;;;;;;;5.95;4.22;;;8.50;71.20;;;;;;5023183;28;20104;-67
2021/05/30 03:42:56;;;;;;;7.05;4.75;;;8.40;71.30;;;;;;5042493;28;20090;-67
2021/05/30 03:45:23;;;;;;;5.40;4.30;;;8.50;71.30;;;;;;5021855;28;20021;-67
2021/05/30 03:47:49;;;;;;;5.55;4.05;;;8.40;71.40;;;;;;5040524;28;20029;-68
2021/05/30 03:50:15;;;;;;;6.65;4.63;;;8.40;71.50;;;;;;5035808;28;20022;-67
2021/05/30 03:52:40;;;;;;;5.13;4.45;;;8.40;71.60;;;;;;5041171;28;20049;-67
2021/05/30 03:55:08;;;;;;;7.13;5.05;;;8.40;71.70;;;;;;5040418;28;20056;-67
2021/05/30 03:57:37;;;;;;;5.78;4.38;;;8.40;71.80;;;;;;5040614;28;20025;-67
2021/05/30 04:00:08;;;;;;;8.38;4.32;;;8.40;72.00;;;;;;5040986;28;20166;-67
2021/05/30 04:02:34;;;;;;;7.07;4.85;;;8.30;72.00;;;;;;5039888;28;20029;-67
2021/05/30 04:04:59;;;;;;;5.70;4.55;;;8.30;71.80;;;;;;5022488;28;20436;-67
2021/05/30 04:07:25;;;;;;;6.43;4.50;;;8.40;72.00;;;;;;5039856;28;20059;-67
2021/05/30 04:09:51;;;;;;;6.50;4.63;;;8.40;72.10;;;;;;5039777;28;20360;-67
2021/05/30 04:12:16;;;;;;;6.63;4.68;;;8.30;72.10;;;;;;5040839;28;20048;-67
2021/05/30 04:14:42;;;;;;;8.30;4.50;;;8.40;72.20;;;;;;5020939;28;20025;-67
2021/05/30 04:17:07;;;;;;;6.25;4.45;;;8.40;72.30;;;;;;5040667;28;20449;-67
2021/05/30 04:19:33;;;;;;;8.32;5.35;;;8.40;72.40;;;;;;5022797;28;20091;-67
2021/05/30 04:21:59;;;;;;;7.47;5.32;;;8.40;72.60;;;;;;5039874;28;20035;-67
2021/05/30 04:24:24;;;;;;;6.65;4.47;;;8.40;72.60;;;;;;5038634;28;20021;-67
2021/05/30 04:26:50;;;;;;;8.55;4.90;;;8.50;72.70;;;;;;5040138;28;20385;-67
2021/05/30 04:29:15;;;;;;;6.90;5.47;;;8.50;72.80;;;;;;5040191;28;20044;-68
2021/05/30 04:31:41;;;;;;;6.65;4.40;;;8.60;73.40;;;;;;5039713;28;20505;-67
2021/05/30 04:34:06;;;;;;;6.68;5.05;;;8.70;73.00;;;;;;5038564;28;20064;-68
2021/05/30 04:36:32;;;;;;;6.38;4.55;;;8.70;73.00;;;;;;5040278;28;20700;-68
2021/05/30 04:38:58;;;;;;;9.50;5.00;;;8.80;73.10;;;;;;5038723;28;20056;-68
2021/05/30 04:41:24;;;;;;;5.57;4.53;;;8.90;73.20;;;;;;5038749;28;20493;-67
2021/05/30 04:43:49;;;;;;;6.10;4.43;;;9.00;73.40;;;;;;5039003;28;20036;-67
2021/05/30 04:46:15;;;;;;;6.35;5.03;;;9.10;73.50;;;;;;5041111;28;20037;-67
2021/05/30 04:48:41;;;;;;;6.82;4.95;;;9.20;73.50;;;;;;5040146;28;20037;-68
2021/05/30 04:51:07;;;;;;;6.45;4.78;;;9.30;73.60;;;;;;5040497;28;20461;-69
2021/05/30 04:53:43;;;;;;;6.57;5.03;;;9.40;73.50;;;;;;5038941;28;20044;-68
2021/05/30 04:56:10;;;;;;;6.90;4.78;;;9.50;73.80;;;;;;5037624;28;20036;-68
2021/05/30 04:58:36;;;;;;;5.63;4.80;;;9.60;73.50;;;;;;5040811;28;20029;-67
2021/05/30 05:01:03;;;;;;;6.85;4.70;;;9.70;73.50;;;;;;5039197;28;20025;-67
2021/05/30 05:03:31;;;;;;;7.28;4.90;;;9.80;73.60;;;;;;5040640;28;20465;-68
2021/05/30 05:05:56;;;;;;;6.60;5.15;;;9.90;73.60;;;;;;5038470;28;20044;-68
2021/05/30 05:08:22;;;;;;;6.00;4.70;;;10.00;73.60;;;;;;5020621;28;20053;-68
2021/05/30 05:10:48;;;;;;;7.25;4.82;;;10.20;73.50;;;;;;5038744;28;20458;-70
2021/05/30 05:13:15;;;;;;;7.13;4.70;;;10.20;73.40;;;;;;5022635;28;20029;-68
2021/05/30 05:15:44;;;;;;;8.30;4.85;;;10.30;73.20;;;;;;5038635;28;20028;-68
2021/05/30 05:18:15;;;;;;;8.02;4.80;;;10.40;73.30;;;;;;5039276;28;20025;-68
2021/05/30 05:20:41;;;;;;;7.32;4.57;;;10.50;73.40;;;;;;5039424;28;20025;-67
2021/05/30 05:23:07;;;;;;;8.50;5.40;;;10.60;73.20;;;;;;5044173;28;20028;-68
2021/05/30 05:25:35;;;;;;;8.02;4.93;;;10.70;73.30;;;;;;5042268;28;20539;-69
2021/05/30 05:28:00;;;;;;;8.52;4.82;;;10.80;73.30;;;;;;5025935;28;20048;-69
2021/05/30 05:30:26;;;;;;;6.43;4.78;;;10.90;73.80;;;;;;5026042;28;20124;-69
2021/05/30 05:32:52;;;;;;;8.52;5.15;;;11.10;73.30;;;;;;5025971;28;20331;-69
2021/05/30 05:35:18;;;;;;;6.72;5.00;;;11.20;73.10;;;;;;5043554;28;20032;-70
2021/05/30 05:37:44;;;;;;;7.15;5.40;;;11.30;72.80;;;;;;5042823;28;20028;-69
2021/05/30 05:40:10;;;;;;;8.52;5.07;;;11.50;72.60;;;;;;5042844;28;20122;-69
2021/05/30 05:42:37;;;;;;;6.90;5.32;;;11.50;72.60;;;;;;5045222;28;20387;-68
2021/05/30 05:45:04;;;;;;;7.85;4.93;;;11.70;72.60;;;;;;5043681;28;20489;-69
2021/05/30 05:47:29;;;;;;;7.40;5.35;;;11.80;72.50;;;;;;5043664;28;20480;-69
2021/05/30 05:49:55;;;;;;;7.15;4.97;;;11.90;72.40;;;;;;5043855;28;20096;-69
2021/05/30 05:52:20;;;;;;;9.48;5.55;;;12.00;72.10;;;;;;5042803;28;20157;-69
2021/05/30 05:54:47;;;;;;;8.65;5.05;;;12.10;71.90;;;;;;5041109;28;20065;-69
2021/05/30 05:57:13;;;;;;;9.77;5.40;;;12.20;71.90;;;;;;5022303;28;20397;-68
2021/05/30 05:59:38;;;;;;;11.20;5.18;;;12.30;71.70;;;;;;5043202;28;20021;-69
2021/05/30 06:02:04;;;;;;;6.70;5.00;;;12.40;71.60;;;;;;5043449;28;20057;-69
2021/05/30 06:04:30;;;;;;;9.10;5.22;;;12.60;71.60;;;;;;5042926;28;20523;-69
2021/05/30 06:06:55;;;;;;;6.60;5.13;;;12.70;71.50;;;;;;5043413;28;20076;-69
2021/05/30 06:09:21;;;;;;;6.57;5.07;;;12.80;71.30;;;;;;5044221;28;20036;-69
2021/05/30 06:11:46;;;;;;;7.70;5.63;;;12.90;71.10;;;;;;5025558;28;20055;-70
2021/05/30 06:14:12;;;;;;;6.60;4.88;;;13.00;70.90;;;;;;5042846;28;20377;-68
2021/05/30 06:16:38;;;;;;;7.22;5.30;;;13.10;71.00;;;;;;5043273;28;20025;-69
2021/05/30 06:19:03;;;;;;;5.57;5.03;;;13.20;70.80;;;;;;5042952;28;20071;-69
2021/05/30 06:21:30;;;;;;;6.88;5.68;;;13.30;70.80;;;;;;5043453;28;20026;-69
2021/05/30 06:23:55;;;;;;;9.27;5.90;;;13.40;70.70;;;;;;5024421;28;20036;-70
2021/05/30 06:26:21;;;;;;;7.13;5.40;;;13.60;70.50;;;;;;5039553;28;20025;-70
2021/05/30 06:28:46;;;;;;;7.82;5.35;;;13.80;70.20;;;;;;5042404;28;20036;-69
2021/05/30 06:31:12;;;;;;;6.28;5.05;;;14.00;69.80;;;;;;5044600;28;20013;-70
2021/05/30 06:33:37;;;;;;;7.07;5.05;;;14.30;69.60;;;;;;5041649;28;20099;-70
2021/05/30 06:36:04;;;;;;;8.63;5.40;;;14.50;69.10;;;;;;5041177;28;20033;-70
2021/05/30 06:38:29;;;;;;;5.75;4.50;;;14.70;68.90;;;;;;5025240;28;20026;-70
2021/05/30 06:40:55;;;;;;;8.48;5.28;;;15.00;68.60;;;;;;5040886;28;20032;-70
2021/05/30 06:43:20;;;;;;;7.53;5.45;;;15.20;68.40;;;;;;5041954;28;20148;-70
2021/05/30 06:45:46;;;;;;;6.80;4.85;;;15.50;68.10;;;;;;5041111;28;20389;-70
2021/05/30 06:48:13;;;;;;;6.32;5.13;;;15.70;67.60;;;;;;5042297;28;20029;-70
2021/05/30 06:50:39;;;;;;;9.90;5.20;;;15.90;67.00;;;;;;5043608;28;20029;-71
2021/05/30 06:53:04;;;;;;;8.77;5.07;;;16.20;66.80;;;;;;5042068;28;20035;-70
2021/05/30 06:55:30;;;;;;;7.18;5.53;;;16.40;66.30;;;;;;5042161;28;20022;-69
2021/05/30 06:57:55;;;;;;;6.82;5.07;;;16.70;65.70;;;;;;5042522;28;20501;-70
2021/05/30 07:00:21;;;;;;;6.22;5.03;;;16.90;65.30;;;;;;5041526;28;20036;-69
2021/05/30 07:02:49;;;;;;;7.30;5.20;;;17.20;64.80;;;;;;5041098;28;20033;-69
2021/05/30 07:05:16;;;;;;;9.60;6.10;;;17.40;64.10;;;;;;5021525;28;20096;-69
2021/05/30 07:07:41;;;;;;;9.57;5.97;;;17.50;63.40;;;;;;5041345;28;20036;-69
2021/05/30 07:10:08;;;;;;;8.52;6.13;;;17.70;63.20;;;;;;5023742;28;20028;-69
2021/05/30 07:12:34;;;;;;;7.47;5.82;;;17.90;62.90;;;;;;5042830;28;20021;-69
2021/05/30 07:15:00;;;;;;;10.07;5.82;;;18.20;62.50;;;;;;5042087;28;20025;-69
2021/05/30 07:17:26;;;;;;;8.77;6.00;;;18.40;61.80;;;;;;5039450;28;20481;-69
2021/05/30 07:19:53;;;;;;;9.68;6.05;;;18.50;61.30;;;;;;5041099;28;20025;-69
2021/05/30 07:22:19;;;;;;;9.38;6.07;;;18.70;61.10;;;;;;5041959;28;20381;-70
2021/05/30 07:24:44;;;;;;;8.13;5.18;;;18.90;61.10;;;;;;5022232;28;20032;-70
2021/05/30 07:27:10;;;;;;;7.45;5.25;;;19.00;60.60;;;;;;5023459;28;20028;-69
2021/05/30 07:29:36;;;;;;;6.85;5.15;;;19.30;60.30;;;;;;5041406;28;20087;-70
2021/05/30 07:32:01;;;;;;;7.32;4.95;;;19.50;59.70;;;;;;5040695;28;20791;-69
2021/05/30 07:34:27;;;;;;;8.38;4.68;;;19.90;59.40;;;;;;5040999;28;20397;-69
2021/05/30 07:36:53;;;;;;;7.80;5.18;;;20.10;58.70;;;;;;5039762;28;20033;-70
2021/05/30 07:39:18;;;;;;;6.63;4.93;;;20.30;58.30;;;;;;5042392;28;20037;-69
2021/05/30 07:41:44;;;;;;;7.00;4.85;;;20.50;57.80;;;;;;5040545;28;20036;-69
2021/05/30 07:44:09;;;;;;;6.30;4.95;;;20.80;57.40;;;;;;5039591;28;20033;-69
2021/05/30 07:46:35;;;;;;;8.07;4.82;;;21.00;56.70;;;;;;5028421;28;20063;-71
2021/05/30 07:49:00;;;;;;;7.75;4.57;;;21.20;56.40;;;;;;5041297;28;20033;-69
2021/05/30 07:51:27;;;;;;;5.00;4.00;;;21.40;55.50;;;;;;5046458;28;20033;-69
2021/05/30 07:53:52;;;;;;;6.05;4.53;;;21.70;55.30;;;;;;5040285;28;20017;-69
2021/05/30 07:56:18;;;;;;;6.93;4.47;;;22.00;54.60;;;;;;5025668;28;20095;-70
2021/05/30 07:58:43;;;;;;;8.10;3.97;;;22.20;53.80;;;;;;5041118;28;20021;-71
2021/05/30 08:01:09;;;;;;;8.20;4.68;;;22.50;53.40;;;;;;5041422;28;20033;-70
2021/05/30 08:03:34;;;;;;;5.93;4.53;;;22.70;52.60;;;;;;5047454;28;20028;-71
2021/05/30 08:06:00;;;;;;;5.03;3.40;;;22.90;52.30;;;;;;5040869;28;20025;-72
2021/05/30 08:08:25;;;;;;;3.60;3.08;;;23.10;51.10;;;;;;5043557;28;20049;-72
2021/05/30 08:10:51;;;;;;;4.80;3.05;;;23.30;50.50;;;;;;5040854;28;20013;-72
2021/05/30 08:13:17;;;;;;;4.10;3.25;;;23.40;49.80;;;;;;5042569;28;20448;-71
2021/05/30 08:15:43;;;;;;;4.90;3.03;;;23.60;49.20;;;;;;5041143;28;20013;-72
2021/05/30 08:18:09;;;;;;;3.33;2.75;;;23.60;48.40;;;;;;5025224;28;20036;-72
2021/05/30 08:20:35;;;;;;;5.28;3.20;;;23.70;48.10;;;;;;5021871;28;20036;-72
2021/05/30 08:23:00;;;;;;;4.00;3.30;;;23.90;47.80;;;;;;5037557;28;20103;-72
2021/05/30 08:25:26;;;;;;;4.88;3.60;;;24.00;47.10;;;;;;5040903;28;20444;-72
2021/05/30 08:27:52;;;;;;;7.25;3.60;;;24.20;47.10;;;;;;5025407;28;20024;-71
2021/05/30 08:30:19;;;;;;;3.95;3.10;;;24.50;47.00;;;;;;5023277;28;20026;-70
2021/05/30 08:32:46;;;;;;;9.45;3.17;;;24.90;46.00;;;;;;5023398;28;20103;-70
2021/05/30 08:35:12;;;;;;;4.68;3.30;;;25.20;45.00;;;;;;5038835;28;20096;-69
2021/05/30 08:37:41;;;;;;;4.03;3.00;;;25.60;44.50;;;;;;5041370;28;20096;-69
2021/05/30 08:40:08;;;;;;;6.63;2.90;;;25.40;44.50;;;;;;5041259;28;20123;-68
2021/05/30 08:42:33;;;;;;;3.63;2.70;;;25.90;43.40;;;;;;5024566;28;20029;-69
2021/05/30 08:44:59;;;;;;;4.07;2.58;;;26.10;43.20;;;;;;5039620;28;20025;-69
2021/05/30 08:47:25;;;;;;;5.38;2.53;;;26.30;42.70;;;;;;5038514;28;20052;-70
2021/05/30 08:49:51;;;;;;;3.25;2.42;;;27.00;41.30;;;;;;5040584;28;20072;-74
2021/05/30 08:52:17;;;;;;;3.00;2.42;;;27.00;40.90;;;;;;5023435;28;20029;-72
2021/05/30 08:54:43;;;;;;;6.28;2.67;;;27.40;39.60;;;;;;5022428;28;20021;-68
2021/05/30 08:57:10;;;;;;;3.30;1.95;;;27.70;38.90;;;;;;5022999;28;20033;-65
2021/05/30 08:59:41;;;;;;;5.00;2.35;;;28.00;38.40;;;;;;5040667;28;20052;-66
2021/05/30 09:02:11;;;;;;;4.23;2.90;;;28.20;38.50;;;;;;5040574;28;20029;-68
2021/05/30 09:04:39;;;;;;;4.07;3.10;;;28.50;38.10;;;;;;5039786;28;20032;-67
2021/05/30 09:07:06;;;;;;;5.80;4.15;;;28.60;38.40;;;;;;5040291;28;20033;-68
2021/05/30 09:09:42;;;;;;;8.52;2.63;;;28.70;37.90;;;;;;5021609;28;20075;-68
2021/05/30 09:12:26;;;;;;;3.90;2.65;;;28.60;37.60;;;;;;5022331;28;20029;-68
2021/05/30 09:14:55;;;;;;;5.47;2.67;;;28.60;38.00;;;;;;5038558;28;20381;-68
2021/05/30 09:17:24;;;;;;;3.20;2.90;;;28.50;37.60;;;;;;5039829;28;20029;-70
2021/05/30 09:19:55;;;;;;;3.15;1.92;;;28.40;37.30;;;;;;5022643;28;20398;-70
2021/05/30 09:22:42;;;;;;;2.90;2.05;;;28.40;38.20;;;;;;5022498;28;20026;-70
2021/05/30 09:25:20;;;;;;;3.15;1.85;;;28.70;37.30;;;;;;5038260;28;20037;-69
2021/05/30 09:28:30;;;;;;;3.80;1.75;;;28.80;37.00;;;;;;5098008;22;20052;-92
2021/05/30 09:31:33;;;;;;;6.43;2.13;;;29.30;37.50;;;;;;5043769;28;20098;-91
2021/05/30 09:34:31;;;;;;;4.30;1.63;;;28.90;37.40;;;;;;5062464;28;20104;-92
2021/05/30 09:36:58;;;;;;;1.65;1.55;;;29.00;36.90;;;;;;5036238;28;20029;-91
2021/05/30 09:39:42;;;;;;;1.60;1.50;;;28.30;37.30;;;;;;5050764;28;20044;-91
2021/05/30 09:42:36;;;;;;;3.65;1.60;;;27.60;38.00;;;;;;5070986;28;20025;-92
2021/05/30 09:45:05;;;;;;;2.40;1.60;;;28.30;37.30;;;;;;5062088;28;20029;-93
2021/05/30 09:47:44;;;;;;;4.55;1.60;;;27.40;37.70;;;;;;5062908;28;20056;-91
2021/05/30 09:50:14;;;;;;;2.28;1.52;;;27.00;37.80;;;;;;5061292;28;20028;-92
2021/05/30 09:52:51;;;;;;;2.17;1.35;;;27.10;37.10;;;;;;5059541;28;20108;-91
2021/05/30 09:55:17;;;;;;;2.00;1.25;;;27.00;36.20;;;;;;5067735;28;20544;-91
2021/05/30 09:58:15;;;;;;;1.83;1.25;;;27.30;36.50;;;;;;5059724;28;20120;-91
2021/05/30 10:00:42;;;;;;;1.70;1.23;;;27.50;36.80;;;;;;5064969;28;20028;-91
2021/05/30 10:03:08;;;;;;;2.25;1.10;;;27.50;36.80;;;;;;5068986;28;20044;-91
2021/05/30 10:05:34;;;;;;;2.53;1.55;;;27.70;37.00;;;;;;5059110;28;20025;-91
2021/05/30 10:08:00;;;;;;;1.75;1.27;;;27.70;36.70;;;;;;5063415;28;20029;-90
2021/05/30 10:10:28;;;;;;;3.60;1.48;;;27.60;36.40;;;;;;5066859;28;20403;-91
2021/05/30 10:12:54;;;;;;;1.95;1.27;;;27.10;36.20;;;;;;5061837;28;20033;-91
2021/05/30 10:15:20;;;;;;;2.22;1.70;;;26.70;36.00;;;;;;5071434;28;20278;-91
2021/05/30 10:17:48;;;;;;;1.92;1.52;;;26.00;36.50;;;;;;5072144;28;20465;-92
2021/05/30 10:20:18;;;;;;;5.68;1.80;;;25.60;36.80;;;;;;5076759;28;20035;-92
2021/05/30 10:22:48;;;;;;;3.05;1.83;;;25.30;36.40;;;;;;5077674;28;20038;-92
2021/05/30 10:25:24;;;;;;;1.70;1.60;;;25.00;37.00;;;;;;5076508;28;20039;-91
2021/05/30 10:28:15;;;;;;;5.07;1.85;;;24.90;37.40;;;;;;5081438;28;20009;-92
2021/05/30 10:31:42;;;;;;;3.20;1.67;;;24.80;38.50;;;;;;5083786;28;20044;-90
2021/05/30 10:34:12;;;;;;;2.63;1.30;;;24.80;38.80;;;;;;5044639;28;20026;-90
2021/05/30 10:37:04;;;;;;;3.70;1.75;;;24.70;38.30;;;;;;5036520;28;20032;-91
2021/05/30 10:39:30;;;;;;;4.03;1.65;;;24.50;38.20;;;;;;5076298;28;20064;-92
2021/05/30 10:42:12;;;;;;;4.93;1.80;;;24.30;38.50;;;;;;5092065;28;20009;-92
2021/05/30 10:44:58;;;;;;;2.72;1.67;;;24.20;38.10;;;;;;5093963;28;20032;-92
2021/05/30 10:47:45;;;;;;;2.95;2.17;;;23.80;38.10;;;;;;5078526;28;20044;-90
2021/05/30 10:50:17;;;;;;;5.65;2.03;;;23.60;38.50;;;;;;5080529;28;20016;-91
2021/05/30 10:52:44;;;;;;;3.80;2.30;;;23.60;39.00;;;;;;5087918;28;20043;-92
2021/05/30 10:55:13;;;;;;;2.10;1.90;;;23.60;39.60;;;;;;5083373;28;20109;-93
2021/05/30 10:57:42;;;;;;;2.33;2.13;;;23.50;39.40;;;;;;5096270;28;20032;-93
2021/05/30 11:00:17;;;;;;;3.05;1.92;;;23.50;40.30;;;;;;5083513;28;20044;-92
2021/05/30 11:03:05;;;;;;;5.30;2.30;;;23.50;39.60;;;;;;5079431;28;20035;-92
2021/05/30 11:05:48;;;;;;;4.20;1.98;;;23.20;39.60;;;;;;5083973;28;20024;-92
2021/05/30 11:08:29;;;;;;;3.80;2.53;;;22.80;39.90;;;;;;5082145;28;20039;-93
2021/05/30 11:11:16;;;;;;;3.37;2.67;;;22.40;40.20;;;;;;5068804;28;20031;-92
2021/05/30 11:13:59;;;;;;;3.22;2.30;;;22.10;41.00;;;;;;5062164;28;20479;-91
2021/05/30 11:16:26;;;;;;;4.00;2.50;;;22.00;41.80;;;;;;5061837;28;20181;-92
2021/05/30 11:19:09;;;;;;;3.10;2.15;;;22.00;42.20;;;;;;5063248;28;20108;-91
2021/05/30 11:21:57;;;;;;;5.30;2.92;;;22.00;42.70;;;;;;5061150;28;20027;-91
2021/05/30 11:24:24;;;;;;;2.47;2.17;;;21.90;42.30;;;;;;5068241;28;20099;-93
2021/05/30 11:26:56;;;;;;;2.83;2.55;;;21.90;42.40;;;;;;5069992;28;20060;-92
2021/05/30 11:29:23;;;;;;;4.45;2.38;;;21.90;42.40;;;;;;5069803;28;20530;-92
2021/05/30 11:31:50;;;;;;;2.38;1.95;;;22.00;42.30;;;;;;5071140;28;20048;-92
2021/05/30 11:34:16;;;;;;;4.55;2.08;;;22.20;42.40;;;;;;5067610;28;20449;-93
2021/05/30 11:36:42;;;;;;;2.00;1.88;;;22.30;42.10;;;;;;5063816;28;20029;-92
2021/05/30 11:39:16;;;;;;;3.58;2.50;;;22.30;41.80;;;;;;5062855;28;20031;-93
2021/05/30 11:41:55;;;;;;;3.10;1.88;;;22.30;43.00;;;;;;5063164;28;20029;-92
2021/05/30 11:44:22;;;;;;;2.63;2.03;;;22.40;42.20;;;;;;5062563;28;20547;-92
2021/05/30 11:47:10;;;;;;;4.18;1.70;;;22.50;42.40;;;;;;5060944;28;20443;-94
2021/05/30 11:49:39;;;;;;;4.03;1.77;;;22.50;41.40;;;;;;5069864;28;20536;-92
2021/05/30 11:52:13;;;;;;;3.83;1.90;;;22.50;41.00;;;;;;5060657;28;20032;-90
2021/05/30 11:54:44;;;;;;;1.92;1.73;;;22.40;40.80;;;;;;5060414;28;20024;-90
2021/05/30 11:57:15;;;;;;;2.90;1.70;;;22.30;41.50;;;;;;5060044;28;20028;-90
2021/05/30 11:59:44;;;;;;;4.03;1.80;;;22.20;41.20;;;;;;5085923;28;20123;-91
2021/05/30 12:02:24;;;;;;;4.68;1.73;;;22.10;40.70;;;;;;5061685;28;20035;-91
2021/05/30 12:04:50;;;;;;;1.95;1.45;;;21.90;40.40;;;;;;5066621;28;20526;-90
2021/05/30 12:07:19;;;;;;;5.18;1.60;;;21.80;40.70;;;;;;5063823;28;20079;-92
2021/05/30 12:10:00;;;;;;;3.50;2.25;;;21.80;41.10;;;;;;5068001;28;20012;-93
2021/05/30 12:12:29;;;;;;;2.13;1.40;;;21.70;41.20;;;;;;5078264;28;20027;-93
2021/05/30 12:15:00;;;;;;;4.25;2.05;;;21.60;40.60;;;;;;5079357;28;20029;-93
2021/05/30 12:17:25;;;;;;;3.28;1.55;;;21.50;41.30;;;;;;5075750;28;20021;-92
2021/05/30 12:19:51;;;;;;;2.80;1.50;;;21.50;41.50;;;;;;5076781;28;20112;-92
2021/05/30 12:22:27;;;;;;;1.73;1.38;;;21.60;41.80;;;;;;5083856;28;20043;-93
2021/05/30 12:24:54;;;;;;;1.92;1.50;;;21.50;41.20;;;;;;5078622;28;20088;-94
2021/05/30 12:27:21;;;;;;;3.45;1.63;;;21.60;41.10;;;;;;5077749;28;20478;-92
2021/05/30 12:29:48;;;;;;;2.08;1.80;;;21.60;40.90;;;;;;5079452;28;20056;-94
2021/05/30 12:32:19;;;;;;;1.90;1.58;;;21.60;40.80;;;;;;5078494;28;20021;-93
2021/05/30 12:34:46;;;;;;;1.67;1.38;;;21.70;40.60;;;;;;5077062;28;20044;-94
2021/05/30 12:37:12;;;;;;;2.92;2.08;;;21.70;40.80;;;;;;5081531;28;20023;-92
2021/05/30 12:39:38;;;;;;;2.08;1.60;;;21.60;41.00;;;;;;5077868;28;20057;-94
2021/05/30 12:42:10;;;;;;;4.35;1.73;;;21.50;40.80;;;;;;5086169;28;20036;-92
2021/05/30 12:44:54;;;;;;;3.83;2.00;;;21.30;41.00;;;;;;5078016;28;20021;-92
2021/05/30 12:47:23;;;;;;;1.83;1.55;;;21.30;41.50;;;;;;5079381;28;20048;-92
2021/05/30 12:50:00;;;;;;;3.65;1.60;;;21.50;41.40;;;;;;5089064;28;20075;-92
2021/05/30 12:52:45;;;;;;;3.40;1.70;;;21.50;41.50;;;;;;5088261;28;20025;-93
2021/05/30 12:55:13;;;;;;;4.13;1.75;;;21.40;41.70;;;;;;5084423;28;20039;-91
2021/05/30 12:57:57;;;;;;;8.60;1.90;;;21.30;41.40;;;;;;5085118;28;20086;-92
2021/05/30 13:00:31;;;;;;;2.70;1.48;;;21.20;41.80;;;;;;5080271;28;20013;-92
2021/05/30 13:03:04;;;;;;;1.80;1.70;;;21.10;42.40;;;;;;5084390;28;20059;-93